sensor_id;sensor_type;location;lat;lon;timestamp;pressure;altitude;pressure_sealevel;temperature;humidity
14612;BME280;7392;52.078;11.650;2023-09-19T00:02:16;99927.78;;;18.47;100.00
14612;BME280;7392;52.078;11.650;2023-09-19T00:04:44;99926.19;;;18.43;100.00
14612;BME280;7392;52.078;11.650;2023-09-19T00:07:12;99934.47;;;18.39;100.00
14612;BME280;7392;52.078;11.650;2023-09-19T00:09:41;99929.53;;;18.29;100.00
14612;BME280;7392;52.078;11.650;2023-09-19T00:12:10;99933.50;;;18.21;100.00
14612;BME280;7392;52.078;11.650;2023-09-19T00:14:40;99933.88;;;18.13;100.00
14612;BME280;7392;52.078;11.650;2023-09-19T00:17:07;99934.13;;;18.07;99.20
14612;BME280;7392;52.078;11.650;2023-09-19T00:19:37;99924.63;;;18.00;97.30
14612;BME280;7392;52.078;11.650;2023-09-19T00:22:05;99939.28;;;17.92;96.00
14612;BME280;7392;52.078;11.650;2023-09-19T00:24:34;99935.94;;;17.87;95.54
14612;BME280;7392;52.078;11.650;2023-09-19T00:27:02;99949.66;;;17.80;95.60
14612;BME280;7392;52.078;11.650;2023-09-19T00:29:30;99940.06;;;17.74;94.95
14612;BME280;7392;52.078;11.650;2023-09-19T00:31:59;99949.22;;;17.70;95.28
14612;BME280;7392;52.078;11.650;2023-09-19T00:34:30;99950.34;;;17.64;94.73
14612;BME280;7392;52.078;11.650;2023-09-19T00:37:02;99938.06;;;17.58;94.19
14612;BME280;7392;52.078;11.650;2023-09-19T00:39:30;99936.47;;;17.54;94.96
14612;BME280;7392;52.078;11.650;2023-09-19T00:41:58;99944.78;;;17.48;94.81
14612;BME280;7392;52.078;11.650;2023-09-19T00:44:31;99944.03;;;17.45;94.71
14612;BME280;7392;52.078;11.650;2023-09-19T00:47:01;99940.69;;;17.39;95.24
14612;BME280;7392;52.078;11.650;2023-09-19T00:49:29;99935.50;;;17.35;95.52
14612;BME280;7392;52.078;11.650;2023-09-19T00:52:02;99949.03;;;17.32;96.02
14612;BME280;7392;52.078;11.650;2023-09-19T00:54:31;99943.97;;;17.26;96.65
14612;BME280;7392;52.078;11.650;2023-09-19T00:57:00;99946.81;;;17.21;96.83
14612;BME280;7392;52.078;11.650;2023-09-19T00:59:28;99943.47;;;17.16;96.93
14612;BME280;7392;52.078;11.650;2023-09-19T01:01:59;99932.25;;;17.06;97.54
14612;BME280;7392;52.078;11.650;2023-09-19T01:04:32;99943.91;;;17.05;97.54
14612;BME280;7392;52.078;11.650;2023-09-19T01:07:01;99933.56;;;16.96;97.80
14612;BME280;7392;52.078;11.650;2023-09-19T01:09:30;99938.13;;;16.94;98.30
14612;BME280;7392;52.078;11.650;2023-09-19T01:12:01;99940.00;;;16.92;98.67
14612;BME280;7392;52.078;11.650;2023-09-19T01:14:37;99933.81;;;16.90;98.72
14612;BME280;7392;52.078;11.650;2023-09-19T01:17:16;99934.94;;;16.84;98.79
14612;BME280;7392;52.078;11.650;2023-09-19T01:20:08;99925.38;;;16.77;98.77
14612;BME280;7392;52.078;11.650;2023-09-19T01:22:51;99925.69;;;16.69;98.88
14612;BME280;7392;52.078;11.650;2023-09-19T01:28:30;99931.47;;;16.58;99.50
14612;BME280;7392;52.078;11.650;2023-09-19T01:31:09;99944.81;;;16.60;100.00
14612;BME280;7392;52.078;11.650;2023-09-19T01:33:57;99961.03;;;16.57;100.00
14612;BME280;7392;52.078;11.650;2023-09-19T01:36:27;99960.25;;;16.53;100.00
14612;BME280;7392;52.078;11.650;2023-09-19T01:38:58;99971.13;;;16.50;100.00
14612;BME280;7392;52.078;11.650;2023-09-19T01:41:35;99981.94;;;16.47;100.00
14612;BME280;7392;52.078;11.650;2023-09-19T01:44:09;99979.44;;;16.42;100.00
14612;BME280;7392;52.078;11.650;2023-09-19T01:46:44;99975.94;;;16.40;100.00
14612;BME280;7392;52.078;11.650;2023-09-19T01:49:22;99975.19;;;16.37;100.00
14612;BME280;7392;52.078;11.650;2023-09-19T01:51:58;99969.94;;;16.34;100.00
14612;BME280;7392;52.078;11.650;2023-09-19T01:54:32;99975.38;;;16.32;100.00
14612;BME280;7392;52.078;11.650;2023-09-19T01:57:05;99977.19;;;16.32;100.00
14612;BME280;7392;52.078;11.650;2023-09-19T01:59:40;99979.91;;;16.30;100.00
14612;BME280;7392;52.078;11.650;2023-09-19T02:02:10;99989.75;;;16.30;100.00
14612;BME280;7392;52.078;11.650;2023-09-19T02:04:40;99995.19;;;16.28;100.00
14612;BME280;7392;52.078;11.650;2023-09-19T02:07:07;99992.50;;;16.28;100.00
14612;BME280;7392;52.078;11.650;2023-09-19T02:09:35;99988.97;;;16.26;100.00
14612;BME280;7392;52.078;11.650;2023-09-19T02:12:06;99994.41;;;16.24;100.00
14612;BME280;7392;52.078;11.650;2023-09-19T02:14:33;99988.16;;;16.24;100.00
14612;BME280;7392;52.078;11.650;2023-09-19T02:17:03;99998.03;;;16.23;100.00
14612;BME280;7392;52.078;11.650;2023-09-19T02:19:34;99998.88;;;16.24;100.00
14612;BME280;7392;52.078;11.650;2023-09-19T02:22:01;99994.34;;;16.26;100.00
14612;BME280;7392;52.078;11.650;2023-09-19T02:24:34;100007.72;;;16.26;100.00
14612;BME280;7392;52.078;11.650;2023-09-19T02:27:03;100006.81;;;16.27;100.00
14612;BME280;7392;52.078;11.650;2023-09-19T02:29:32;100009.50;;;16.27;100.00
14612;BME280;7392;52.078;11.650;2023-09-19T02:32:02;100007.72;;;16.26;100.00
14612;BME280;7392;52.078;11.650;2023-09-19T02:34:31;100016.66;;;16.26;100.00
14612;BME280;7392;52.078;11.650;2023-09-19T02:37:00;100025.56;;;16.27;100.00
14612;BME280;7392;52.078;11.650;2023-09-19T02:39:28;100025.50;;;16.29;100.00
14612;BME280;7392;52.078;11.650;2023-09-19T02:41:56;100021.06;;;16.27;100.00
14612;BME280;7392;52.078;11.650;2023-09-19T02:44:24;100024.69;;;16.26;100.00
14612;BME280;7392;52.078;11.650;2023-09-19T02:46:52;100026.47;;;16.26;100.00
14612;BME280;7392;52.078;11.650;2023-09-19T02:49:21;100035.53;;;16.23;100.00
14612;BME280;7392;52.078;11.650;2023-09-19T02:51:49;100035.56;;;16.22;100.00
14612;BME280;7392;52.078;11.650;2023-09-19T02:54:19;100040.06;;;16.21;100.00
14612;BME280;7392;52.078;11.650;2023-09-19T02:56:48;100034.75;;;16.20;100.00
14612;BME280;7392;52.078;11.650;2023-09-19T02:59:16;100044.53;;;16.21;100.00
14612;BME280;7392;52.078;11.650;2023-09-19T03:01:46;100052.66;;;16.19;100.00
14612;BME280;7392;52.078;11.650;2023-09-19T03:04:15;100047.41;;;16.16;100.00
14612;BME280;7392;52.078;11.650;2023-09-19T03:06:47;100049.25;;;16.14;100.00
14612;BME280;7392;52.078;11.650;2023-09-19T03:09:19;100052.84;;;16.13;100.00
14612;BME280;7392;52.078;11.650;2023-09-19T03:11:46;100060.03;;;16.13;100.00
14612;BME280;7392;52.078;11.650;2023-09-19T03:14:14;100065.38;;;16.13;100.00
14612;BME280;7392;52.078;11.650;2023-09-19T03:16:42;100057.41;;;16.11;100.00
14612;BME280;7392;52.078;11.650;2023-09-19T03:19:12;100061.84;;;16.11;99.86
14612;BME280;7392;52.078;11.650;2023-09-19T03:21:42;100063.69;;;16.10;99.05
14612;BME280;7392;52.078;11.650;2023-09-19T03:24:10;100067.31;;;16.09;98.51
14612;BME280;7392;52.078;11.650;2023-09-19T03:26:40;100069.97;;;16.09;97.86
14612;BME280;7392;52.078;11.650;2023-09-19T03:29:07;100068.28;;;16.06;97.37
14612;BME280;7392;52.078;11.650;2023-09-19T03:31:37;100075.44;;;16.06;96.93
14612;BME280;7392;52.078;11.650;2023-09-19T03:34:07;100069.28;;;16.04;97.13
14612;BME280;7392;52.078;11.650;2023-09-19T03:36:35;100072.00;;;16.02;96.66
14612;BME280;7392;52.078;11.650;2023-09-19T03:39:03;100078.31;;;16.00;96.83
14612;BME280;7392;52.078;11.650;2023-09-19T03:41:32;100088.16;;;15.99;96.80
14612;BME280;7392;52.078;11.650;2023-09-19T03:44:04;100082.06;;;15.96;96.94
14612;BME280;7392;52.078;11.650;2023-09-19T03:46:33;100083.97;;;15.92;97.04
14612;BME280;7392;52.078;11.650;2023-09-19T03:49:02;100091.16;;;15.90;96.96
14612;BME280;7392;52.078;11.650;2023-09-19T03:51:30;100079.63;;;15.88;97.23
14612;BME280;7392;52.078;11.650;2023-09-19T03:54:01;100084.16;;;15.86;97.10
14612;BME280;7392;52.078;11.650;2023-09-19T03:56:30;100076.19;;;15.84;97.03
14612;BME280;7392;52.078;11.650;2023-09-19T03:58:58;100072.72;;;15.81;96.99
14612;BME280;7392;52.078;11.650;2023-09-19T04:01:27;100087.97;;;15.79;97.18
14612;BME280;7392;52.078;11.650;2023-09-19T04:03:57;100090.78;;;15.74;97.50
14612;BME280;7392;52.078;11.650;2023-09-19T04:06:25;100082.84;;;15.71;97.49
14612;BME280;7392;52.078;11.650;2023-09-19T04:08:53;100085.56;;;15.69;97.85
14612;BME280;7392;52.078;11.650;2023-09-19T04:11:23;100084.78;;;15.66;97.74
14612;BME280;7392;52.078;11.650;2023-09-19T04:13:51;100106.22;;;15.66;98.25
14612;BME280;7392;52.078;11.650;2023-09-19T04:16:19;100099.22;;;15.62;98.43
14612;BME280;7392;52.078;11.650;2023-09-19T04:18:48;100109.09;;;15.60;98.63
14612;BME280;7392;52.078;11.650;2023-09-19T04:21:16;100097.63;;;15.56;98.92
14612;BME280;7392;52.078;11.650;2023-09-19T04:23:46;100095.00;;;15.55;98.97
14612;BME280;7392;52.078;11.650;2023-09-19T04:26:14;100098.69;;;15.50;99.04
14612;BME280;7392;52.078;11.650;2023-09-19T04:28:43;100094.28;;;15.49;99.02
14612;BME280;7392;52.078;11.650;2023-09-19T04:31:10;100101.53;;;15.46;99.18
14612;BME280;7392;52.078;11.650;2023-09-19T04:33:38;100093.59;;;15.43;99.53
14612;BME280;7392;52.078;11.650;2023-09-19T04:36:08;100094.56;;;15.40;99.35
14612;BME280;7392;52.078;11.650;2023-09-19T04:38:56;100103.66;;;15.34;99.34
14612;BME280;7392;52.078;11.650;2023-09-19T04:41:24;100112.72;;;15.30;99.12
14612;BME280;7392;52.078;11.650;2023-09-19T04:43:52;100114.53;;;15.28;99.43
14612;BME280;7392;52.078;11.650;2023-09-19T04:46:19;100120.06;;;15.24;99.34
14612;BME280;7392;52.078;11.650;2023-09-19T04:48:47;100121.06;;;15.20;99.25
14612;BME280;7392;52.078;11.650;2023-09-19T04:51:16;100108.69;;;15.17;99.27
14612;BME280;7392;52.078;11.650;2023-09-19T04:53:45;100116.75;;;15.15;99.49
14612;BME280;7392;52.078;11.650;2023-09-19T04:56:14;100132.88;;;15.12;99.26
14612;BME280;7392;52.078;11.650;2023-09-19T04:58:42;100125.81;;;15.10;99.24
14612;BME280;7392;52.078;11.650;2023-09-19T05:01:10;100130.34;;;15.08;99.14
14612;BME280;7392;52.078;11.650;2023-09-19T05:03:39;100135.72;;;15.06;99.46
14612;BME280;7392;52.078;11.650;2023-09-19T05:06:07;100139.34;;;15.05;99.58
14612;BME280;7392;52.078;11.650;2023-09-19T05:08:36;100142.09;;;15.02;99.15
14612;BME280;7392;52.078;11.650;2023-09-19T05:11:03;100135.94;;;15.00;99.15
14612;BME280;7392;52.078;11.650;2023-09-19T05:13:32;100144.81;;;15.01;99.00
14612;BME280;7392;52.078;11.650;2023-09-19T05:16:00;100150.16;;;15.01;99.10
14612;BME280;7392;52.078;11.650;2023-09-19T05:18:29;100145.72;;;15.00;99.33
14612;BME280;7392;52.078;11.650;2023-09-19T05:20:58;100159.09;;;15.00;99.08
14612;BME280;7392;52.078;11.650;2023-09-19T05:23:26;100158.22;;;14.99;99.08
14612;BME280;7392;52.078;11.650;2023-09-19T05:25:55;100154.75;;;14.97;99.47
14612;BME280;7392;52.078;11.650;2023-09-19T05:28:25;100162.75;;;14.97;99.65
14612;BME280;7392;52.078;11.650;2023-09-19T05:30:53;100156.53;;;14.96;99.29
14612;BME280;7392;52.078;11.650;2023-09-19T05:33:21;100161.00;;;14.96;99.04
14612;BME280;7392;52.078;11.650;2023-09-19T05:35:48;100169.91;;;14.96;99.28
14612;BME280;7392;52.078;11.650;2023-09-19T05:38:16;100166.34;;;14.96;99.41
14612;BME280;7392;52.078;11.650;2023-09-19T05:40:46;100172.53;;;14.98;99.53
14612;BME280;7392;52.078;11.650;2023-09-19T05:43:15;100171.59;;;14.99;99.21
14612;BME280;7392;52.078;11.650;2023-09-19T05:45:43;100167.97;;;15.02;99.48
14612;BME280;7392;52.078;11.650;2023-09-19T05:48:13;100183.97;;;15.03;98.99
14612;BME280;7392;52.078;11.650;2023-09-19T05:50:43;100182.09;;;15.07;98.91
14612;BME280;7392;52.078;11.650;2023-09-19T05:53:11;100187.41;;;15.08;98.95
14612;BME280;7392;52.078;11.650;2023-09-19T05:55:41;100192.66;;;15.10;98.78
14612;BME280;7392;52.078;11.650;2023-09-19T05:58:10;100183.75;;;15.11;98.38
14612;BME280;7392;52.078;11.650;2023-09-19T06:00:42;100192.63;;;15.11;98.73
14612;BME280;7392;52.078;11.650;2023-09-19T06:03:11;100193.47;;;15.13;98.32
14612;BME280;7392;52.078;11.650;2023-09-19T06:05:40;100204.13;;;15.15;97.42
14612;BME280;7392;52.078;11.650;2023-09-19T06:08:08;100206.75;;;15.17;96.70
14612;BME280;7392;52.078;11.650;2023-09-19T06:10:38;100208.50;;;15.18;96.36
14612;BME280;7392;52.078;11.650;2023-09-19T06:13:06;100208.47;;;15.19;95.84
14612;BME280;7392;52.078;11.650;2023-09-19T06:15:36;100213.72;;;15.22;94.95
14612;BME280;7392;52.078;11.650;2023-09-19T06:18:10;100225.25;;;15.24;93.79
14612;BME280;7392;52.078;11.650;2023-09-19T06:20:41;100215.38;;;15.26;93.79
14612;BME280;7392;52.078;11.650;2023-09-19T06:23:11;100223.31;;;15.29;93.79
14612;BME280;7392;52.078;11.650;2023-09-19T06:25:39;100230.44;;;15.30;93.29
14612;BME280;7392;52.078;11.650;2023-09-19T06:28:07;100226.81;;;15.31;92.89
14612;BME280;7392;52.078;11.650;2023-09-19T06:30:38;100240.16;;;15.33;91.88
14612;BME280;7392;52.078;11.650;2023-09-19T06:33:08;100240.97;;;15.35;91.11
14612;BME280;7392;52.078;11.650;2023-09-19T06:35:38;100248.03;;;15.38;90.47
14612;BME280;7392;52.078;11.650;2023-09-19T06:38:06;100248.81;;;15.41;90.74
14612;BME280;7392;52.078;11.650;2023-09-19T06:40:34;100261.22;;;15.44;90.75
14612;BME280;7392;52.078;11.650;2023-09-19T06:43:02;100268.28;;;15.46;90.36
14612;BME280;7392;52.078;11.650;2023-09-19T06:45:32;100270.94;;;15.48;90.17
14612;BME280;7392;52.078;11.650;2023-09-19T06:48:00;100278.88;;;15.51;90.20
14612;BME280;7392;52.078;11.650;2023-09-19T06:50:31;100271.75;;;15.50;90.04
14612;BME280;7392;52.078;11.650;2023-09-19T06:53:00;100280.59;;;15.52;89.77
14612;BME280;7392;52.078;11.650;2023-09-19T06:55:28;100284.09;;;15.54;90.28
14612;BME280;7392;52.078;11.650;2023-09-19T06:57:59;100281.44;;;15.54;90.07
14612;BME280;7392;52.078;11.650;2023-09-19T07:00:27;100288.53;;;15.55;89.93
14612;BME280;7392;52.078;11.650;2023-09-19T07:02:58;100289.34;;;15.59;90.28
14612;BME280;7392;52.078;11.650;2023-09-19T07:05:28;100295.56;;;15.59;89.89
14612;BME280;7392;52.078;11.650;2023-09-19T07:07:59;100301.75;;;15.61;89.78
14612;BME280;7392;52.078;11.650;2023-09-19T07:10:27;100314.16;;;15.64;89.90
14612;BME280;7392;52.078;11.650;2023-09-19T07:12:56;100324.78;;;15.67;89.49
14612;BME280;7392;52.078;11.650;2023-09-19T07:15:24;100329.19;;;15.68;88.63
14612;BME280;7392;52.078;11.650;2023-09-19T07:17:52;100337.22;;;15.68;87.58
14612;BME280;7392;52.078;11.650;2023-09-19T07:20:23;100339.13;;;15.64;86.19
14612;BME280;7392;52.078;11.650;2023-09-19T07:22:52;100344.63;;;15.60;85.64
14612;BME280;7392;52.078;11.650;2023-09-19T07:25:22;100339.34;;;15.57;84.12
14612;BME280;7392;52.078;11.650;2023-09-19T07:27:51;100340.34;;;15.52;84.02
14612;BME280;7392;52.078;11.650;2023-09-19T07:30:19;100344.84;;;15.52;84.25
14612;BME280;7392;52.078;11.650;2023-09-19T07:32:47;100345.63;;;15.56;83.99
14612;BME280;7392;52.078;11.650;2023-09-19T07:35:15;100342.81;;;15.60;84.33
14612;BME280;7392;52.078;11.650;2023-09-19T07:37:43;100331.09;;;15.64;84.33
14612;BME280;7392;52.078;11.650;2023-09-19T07:40:17;100333.63;;;15.69;83.35
14612;BME280;7392;52.078;11.650;2023-09-19T07:42:47;100316.66;;;15.70;82.68
14612;BME280;7392;52.078;11.650;2023-09-19T07:45:14;100316.53;;;15.73;80.73
14612;BME280;7392;52.078;11.650;2023-09-19T07:47:44;100312.00;;;15.78;77.74
14612;BME280;7392;52.078;11.650;2023-09-19T07:50:12;100321.66;;;15.82;77.32
14612;BME280;7392;52.078;11.650;2023-09-19T07:52:40;100321.53;;;15.87;76.50
14612;BME280;7392;52.078;11.650;2023-09-19T07:55:08;100323.13;;;15.93;75.11
14612;BME280;7392;52.078;11.650;2023-09-19T07:57:38;100334.53;;;15.99;73.63
14612;BME280;7392;52.078;11.650;2023-09-19T08:00:10;100344.09;;;16.08;74.12
14612;BME280;7392;52.078;11.650;2023-09-19T08:02:39;100335.91;;;16.13;73.13
14612;BME280;7392;52.078;11.650;2023-09-19T08:05:09;100358.84;;;16.21;73.24
14612;BME280;7392;52.078;11.650;2023-09-19T08:07:38;100356.84;;;16.28;71.93
14612;BME280;7392;52.078;11.650;2023-09-19T08:10:07;100357.59;;;16.33;72.00
14612;BME280;7392;52.078;11.650;2023-09-19T08:12:39;100376.94;;;16.41;71.61
14612;BME280;7392;52.078;11.650;2023-09-19T08:15:15;100372.28;;;16.48;70.43
14612;BME280;7392;52.078;11.650;2023-09-19T08:17:43;100364.78;;;16.59;70.62
14612;BME280;7392;52.078;11.650;2023-09-19T08:20:12;100376.13;;;16.68;70.39
14612;BME280;7392;52.078;11.650;2023-09-19T08:22:43;100371.34;;;16.77;69.97
14612;BME280;7392;52.078;11.650;2023-09-19T08:25:14;100380.06;;;16.84;68.23
14612;BME280;7392;52.078;11.650;2023-09-19T08:27:45;100388.66;;;16.94;68.74
14612;BME280;7392;52.078;11.650;2023-09-19T08:30:19;100386.56;;;17.04;67.95
14612;BME280;7392;52.078;11.650;2023-09-19T08:32:51;100381.88;;;17.10;68.13
14612;BME280;7392;52.078;11.650;2023-09-19T08:35:18;100375.25;;;17.20;68.55
14612;BME280;7392;52.078;11.650;2023-09-19T08:37:47;100382.75;;;17.36;69.24
14612;BME280;7392;52.078;11.650;2023-09-19T08:40:14;100378.84;;;17.45;67.63
14612;BME280;7392;52.078;11.650;2023-09-19T08:42:49;100381.19;;;17.54;66.88
14612;BME280;7392;52.078;11.650;2023-09-19T08:45:19;100385.28;;;17.64;66.29
14612;BME280;7392;52.078;11.650;2023-09-19T08:48:00;100386.75;;;17.73;65.32
14612;BME280;7392;52.078;11.650;2023-09-19T08:50:33;100386.41;;;17.82;65.95
14612;BME280;7392;52.078;11.650;2023-09-19T08:53:10;100373.78;;;17.84;63.02
14612;BME280;7392;52.078;11.650;2023-09-19T08:55:40;100362.19;;;17.84;62.37
14612;BME280;7392;52.078;11.650;2023-09-19T08:58:10;100371.97;;;17.85;63.28
14612;BME280;7392;52.078;11.650;2023-09-19T09:00:41;100370.13;;;17.88;63.29
14612;BME280;7392;52.078;11.650;2023-09-19T09:03:11;100367.28;;;17.91;63.20
14612;BME280;7392;52.078;11.650;2023-09-19T09:05:42;100370.88;;;17.92;62.30
14612;BME280;7392;52.078;11.650;2023-09-19T09:08:13;100368.13;;;17.93;62.14
14612;BME280;7392;52.078;11.650;2023-09-19T09:10:44;100373.41;;;17.95;62.38
14612;BME280;7392;52.078;11.650;2023-09-19T09:13:12;100380.59;;;17.94;62.17
14612;BME280;7392;52.078;11.650;2023-09-19T09:15:42;100385.16;;;17.92;61.87
14612;BME280;7392;52.078;11.650;2023-09-19T09:18:11;100380.59;;;17.94;61.64
14612;BME280;7392;52.078;11.650;2023-09-19T09:20:40;100377.81;;;17.98;61.43
14612;BME280;7392;52.078;11.650;2023-09-19T09:23:08;100387.41;;;18.03;60.96
14612;BME280;7392;52.078;11.650;2023-09-19T09:25:50;100380.88;;;18.10;61.06
14612;BME280;7392;52.078;11.650;2023-09-19T09:28:22;100394.88;;;18.19;61.42
14612;BME280;7392;52.078;11.650;2023-09-19T09:30:52;100390.84;;;18.30;62.09
14612;BME280;7392;52.078;11.650;2023-09-19T09:33:20;100406.56;;;18.41;62.01
14612;BME280;7392;52.078;11.650;2023-09-19T09:35:51;100398.34;;;18.44;61.03
14612;BME280;7392;52.078;11.650;2023-09-19T09:38:24;100384.59;;;18.52;60.65
14612;BME280;7392;52.078;11.650;2023-09-19T09:40:59;100391.41;;;18.61;60.33
14612;BME280;7392;52.078;11.650;2023-09-19T09:43:32;100396.28;;;18.73;60.72
14612;BME280;7392;52.078;11.650;2023-09-19T09:46:12;100407.59;;;18.81;59.43
14612;BME280;7392;52.078;11.650;2023-09-19T09:48:58;100389.44;;;18.88;59.90
14612;BME280;7392;52.078;11.650;2023-09-19T09:51:43;100382.72;;;18.98;60.35
14612;BME280;7392;52.078;11.650;2023-09-19T09:54:15;100389.59;;;19.05;59.74
14612;BME280;7392;52.078;11.650;2023-09-19T09:56:54;100388.53;;;19.10;59.85
14612;BME280;7392;52.078;11.650;2023-09-19T09:59:45;100373.91;;;19.15;59.62
14612;BME280;7392;52.078;11.650;2023-09-19T10:02:19;100386.03;;;19.25;59.64
14612;BME280;7392;52.078;11.650;2023-09-19T10:04:53;100387.75;;;19.27;59.13
14612;BME280;7392;52.078;11.650;2023-09-19T10:07:34;100385.91;;;19.29;59.37
14612;BME280;7392;52.078;11.650;2023-09-19T10:10:10;100392.28;;;19.26;57.93
14612;BME280;7392;52.078;11.650;2023-09-19T10:12:44;100387.84;;;19.25;58.82
14612;BME280;7392;52.078;11.650;2023-09-19T10:15:17;100390.31;;;19.30;59.22
14612;BME280;7392;52.078;11.650;2023-09-19T10:17:48;100387.50;;;19.33;58.06
14612;BME280;7392;52.078;11.650;2023-09-19T10:20:17;100388.16;;;19.38;58.72
14612;BME280;7392;52.078;11.650;2023-09-19T10:23:06;100386.88;;;19.47;59.22
14612;BME280;7392;52.078;11.650;2023-09-19T10:25:38;100389.09;;;19.57;59.34
14612;BME280;7392;52.078;11.650;2023-09-19T10:28:07;100383.16;;;19.70;59.68
14612;BME280;7392;52.078;11.650;2023-09-19T10:30:41;100392.59;;;19.80;59.09
14612;BME280;7392;52.078;11.650;2023-09-19T10:33:14;100388.00;;;19.82;58.12
14612;BME280;7392;52.078;11.650;2023-09-19T10:35:43;100386.84;;;19.88;58.03
14612;BME280;7392;52.078;11.650;2023-09-19T10:38:12;100395.66;;;19.91;57.39
14612;BME280;7392;52.078;11.650;2023-09-19T10:40:47;100389.53;;;19.88;56.47
14612;BME280;7392;52.078;11.650;2023-09-19T10:43:17;100391.44;;;19.86;56.53
14612;BME280;7392;52.078;11.650;2023-09-19T10:45:47;100391.31;;;19.89;56.44
14612;BME280;7392;52.078;11.650;2023-09-19T10:48:18;100393.13;;;19.88;55.64
14612;BME280;7392;52.078;11.650;2023-09-19T10:50:50;100387.44;;;19.94;55.97
14612;BME280;7392;52.078;11.650;2023-09-19T10:53:19;100387.81;;;20.06;55.92
14612;BME280;7392;52.078;11.650;2023-09-19T10:55:52;100393.63;;;20.15;55.46
14612;BME280;7392;52.078;11.650;2023-09-19T10:58:26;100395.03;;;20.24;54.80
14612;BME280;7392;52.078;11.650;2023-09-19T11:00:57;100392.16;;;20.27;54.22
14612;BME280;7392;52.078;11.650;2023-09-19T11:03:30;100395.31;;;20.37;55.05
14612;BME280;7392;52.078;11.650;2023-09-19T11:06:08;100391.22;;;20.47;54.89
14612;BME280;7392;52.078;11.650;2023-09-19T11:08:57;100390.84;;;20.55;53.11
14612;BME280;7392;52.078;11.650;2023-09-19T11:11:40;100395.06;;;20.61;52.47
14612;BME280;7392;52.078;11.650;2023-09-19T11:14:15;100387.81;;;20.61;52.96
14612;BME280;7392;52.078;11.650;2023-09-19T11:23:18;100395.53;;;20.88;51.98
14612;BME280;7392;52.078;11.650;2023-09-19T11:25:49;100396.09;;;20.95;52.67
14612;BME280;7392;52.078;11.650;2023-09-19T11:28:34;100395.06;;;20.97;52.38
14612;BME280;7392;52.078;11.650;2023-09-19T11:34:45;100396.81;;;20.98;51.98
14612;BME280;7392;52.078;11.650;2023-09-19T11:40:47;100390.00;;;20.91;51.94
14612;BME280;7392;52.078;11.650;2023-09-19T11:43:29;100389.91;;;20.92;52.37
14612;BME280;7392;52.078;11.650;2023-09-19T11:46:03;100392.75;;;20.89;52.92
14612;BME280;7392;52.078;11.650;2023-09-19T11:48:32;100387.44;;;20.88;52.83
14612;BME280;7392;52.078;11.650;2023-09-19T11:51:01;100382.84;;;20.90;53.36
14612;BME280;7392;52.078;11.650;2023-09-19T11:53:43;100373.63;;;20.94;54.33
14612;BME280;7392;52.078;11.650;2023-09-19T11:56:12;100386.16;;;20.95;54.17
14612;BME280;7392;52.078;11.650;2023-09-19T11:58:41;100381.06;;;20.89;53.83
14612;BME280;7392;52.078;11.650;2023-09-19T12:01:13;100384.75;;;20.88;53.70
14612;BME280;7392;52.078;11.650;2023-09-19T12:03:46;100389.34;;;20.86;53.65
14612;BME280;7392;52.078;11.650;2023-09-19T12:06:15;100382.19;;;20.85;53.31
14612;BME280;7392;52.078;11.650;2023-09-19T12:08:44;100381.41;;;20.83;53.39
14612;BME280;7392;52.078;11.650;2023-09-19T12:11:16;100375.84;;;20.86;53.26
14612;BME280;7392;52.078;11.650;2023-09-19T12:13:45;100384.59;;;20.91;52.75
14612;BME280;7392;52.078;11.650;2023-09-19T12:16:20;100382.97;;;20.87;52.63
14612;BME280;7392;52.078;11.650;2023-09-19T12:18:51;100378.16;;;20.93;53.42
14612;BME280;7392;52.078;11.650;2023-09-19T12:21:25;100375.06;;;21.01;53.88
14612;BME280;7392;52.078;11.650;2023-09-19T12:24:09;100372.38;;;21.01;51.37
14612;BME280;7392;52.078;11.650;2023-09-19T12:26:43;100380.47;;;21.01;52.02
14612;BME280;7392;52.078;11.650;2023-09-19T12:29:13;100373.09;;;21.05;51.55
14612;BME280;7392;52.078;11.650;2023-09-19T12:31:51;100374.81;;;21.06;51.70
14612;BME280;7392;52.078;11.650;2023-09-19T12:34:23;100373.88;;;21.07;51.90
14612;BME280;7392;52.078;11.650;2023-09-19T12:37:10;100383.53;;;21.11;51.95
14612;BME280;7392;52.078;11.650;2023-09-19T12:39:40;100379.03;;;21.11;52.37
14612;BME280;7392;52.078;11.650;2023-09-19T12:42:11;100384.50;;;21.10;51.51
14612;BME280;7392;52.078;11.650;2023-09-19T12:44:42;100382.69;;;21.10;52.02
14612;BME280;7392;52.078;11.650;2023-09-19T12:47:12;100389.06;;;21.09;52.16
14612;BME280;7392;52.078;11.650;2023-09-19T12:50:13;100373.31;;;21.18;51.99
14612;BME280;7392;52.078;11.650;2023-09-19T12:52:45;100374.75;;;21.25;51.73
14612;BME280;7392;52.078;11.650;2023-09-19T12:55:21;100381.66;;;21.30;51.83
14612;BME280;7392;52.078;11.650;2023-09-19T12:58:08;100385.13;;;21.33;51.60
14612;BME280;7392;52.078;11.650;2023-09-19T13:00:39;100373.47;;;21.32;51.17
14612;BME280;7392;52.078;11.650;2023-09-19T13:06:10;100367.09;;;21.33;50.83
14612;BME280;7392;52.078;11.650;2023-09-19T13:08:40;100373.47;;;21.32;51.66
14612;BME280;7392;52.078;11.650;2023-09-19T13:11:10;100369.97;;;21.30;50.79
14612;BME280;7392;52.078;11.650;2023-09-19T13:13:43;100379.53;;;21.20;50.30
14612;BME280;7392;52.078;11.650;2023-09-19T13:16:16;100378.69;;;21.18;50.00
14612;BME280;7392;52.078;11.650;2023-09-19T13:18:50;100381.59;;;21.15;50.57
14612;BME280;7392;52.078;11.650;2023-09-19T13:21:27;100372.44;;;21.17;50.40
14612;BME280;7392;52.078;11.650;2023-09-19T13:23:56;100371.22;;;21.23;50.70
14612;BME280;7392;52.078;11.650;2023-09-19T13:26:43;100368.31;;;21.27;50.31
14612;BME280;7392;52.078;11.650;2023-09-19T13:29:13;100371.72;;;21.31;50.08
14612;BME280;7392;52.078;11.650;2023-09-19T13:31:46;100367.00;;;21.35;50.14